• Join FlightAware (Why Join?)
  • Login
  • US Flag 
03:43PM EDT


 

Airport Tracker/Info


-or-


 

Live Flight TrackerFlight Track Log ✈ N884FT ✈ 03-Nov-2013 ✈ KTPA - KMLB

Flight Track Log - Related Links

Times and Time Zones

All times are in EST time to prevent confusion due to time zone crossing. See the N884FT flight status page for this flight to view local times or setup timezone preferences in your user account.

Time Position Orientation Groundspeed Altitude Reporting Facility
EST Latitude Longitude Course Direction KTS MPH feet Rate Location/Type
10:36AM 28.0000 -82.5167 60° Northeast 93 107 1,800  Level Tampa TRACON
10:37AM 28.0167 -82.4833 60° Northeast 101 116 2,500 660 Climbing Tampa TRACON
10:38AM 28.0167 -82.4500 90° East 111 128 3,200 660 Climbing Tampa TRACON
10:39AM 28.0000 -82.4167 120° Southeast 114 131 3,900 480 Climbing Tampa TRACON
10:40AM 28.0167 -82.3833 60° Northeast 120 138 4,200 60 Climbing Tampa TRACON
10:41AM 28.0000 -82.3333 111° Southeast 131 151 4,100  Descending Tampa TRACON
10:42AM 28.0000 -82.3000 90° East 130 150 4,300 420 Climbing Tampa TRACON
10:43AM 28.0000 -82.2667 90° East 121 139 5,000 360 Climbing Tampa TRACON
10:44AM 28.0000 -82.2167 90° East 124 143 5,100 60 Climbing Tampa TRACON
10:47AM 28.0000 -82.1167 90° East 130 150 5,200  Climbing Orlando TRACON
10:48AM 27.9833 -82.0833 120° Southeast 136 157 5,100 -60 Descending Orlando TRACON
10:49AM 27.9833 -82.0333 90° East 144 166 5,100  Level Orlando TRACON
10:50AM 27.9833 -81.9833 90° East 141 162 5,100  Level Orlando TRACON
10:51AM 28.0000 -81.9500 60° Northeast 146 168 5,100  Level Orlando TRACON
10:52AM 28.0000 -81.9000 90° East 148 170 5,200  Climbing Orlando TRACON
10:53AM 28.0000 -81.8667 90° East 148 170 5,200 -60 Level Orlando TRACON
10:54AM 28.0167 -81.8167 69° East 150 173 5,100 -60 Descending Orlando TRACON
10:55AM 28.0167 -81.7667 90° East 150 173 5,100  Level Orlando TRACON
10:56AM 28.0333 -81.7167 69° East 147 169 5,100  Level Orlando TRACON
10:57AM 28.0333 -81.6667 90° East 146 168 5,200 -240 Climbing Orlando TRACON
10:58AM 28.0333 -81.6167 90° East 145 167 4,700 -600 Descending Orlando TRACON
10:59AM 28.0500 -81.5833 60° Northeast 144 166 4,000 -660 Descending Orlando TRACON
11:00AM 28.0500 -81.5333 90° East 136 157 3,400 -420 Descending Orlando TRACON
11:01AM 28.0500 -81.5000 90° East 134 154 3,200 -180 Descending Orlando TRACON
11:02AM 28.0667 -81.4500 69° East 141 162 3,100 -60 Descending Orlando TRACON
11:03AM 28.0667 -81.4000 90° East 147 169 3,100  Level Orlando TRACON
11:04AM 28.0667 -81.3667 90° East 143 165 3,100  Level Orlando TRACON
11:05AM 28.0833 -81.3167 69° East 139 160 3,100  Level Orlando TRACON
11:06AM 28.0833 -81.2833 90° East 137 158 3,100  Level Orlando TRACON
11:07AM 28.0833 -81.2333 90° East 151 174 3,100 240 Level Orlando TRACON
11:08AM 28.1000 -81.1833 69° East 132 152 3,700 660 Climbing Orlando TRACON
11:09AM 28.1000 -81.1500 90° East 130 150 4,500 600 Climbing Orlando TRACON
11:10AM 28.0833 -81.1000 111° Southeast 135 155 5,000 240 Climbing Orlando TRACON
11:11AM 28.0667 -81.0667 120° Southeast 142 163 5,000  Level Orlando TRACON